Eko 4 — SVAR8 — position and weather

sailwx.info

Track history (hours):
 
Tides and Currents Weather Stations Pressure Air Temp Water Temp Dewpoint Dewpoint Depression Visibility Wind Speed Wind Dir Waves Ship Positions

Eko 4

Last reported at 2016-Jul-27 19:33 UTC. Time now 2016-Jul-30 03:32 UTC.
Position N 37°12' E 025°45'.

Length 88 m; draft 5 m.

Type: Ship (hazmat cat A). MMSI: 240912000.

Date/timePositionNaut miles runAvg speedWind from/ knotsBaromVisibWave heightAir tempDewpointWater temp
2016-Jul-27 19:33N 37°12' E 025°45'17 8.5
2016-Jul-27 17:33N 37°16' E 025°24'9 8.7
2016-Jul-27 16:32N 37°17' E 025°14'60 8.2
2016-Jul-27 09:12N 37°34' E 024°00'6 9.1
2016-Jul-27 08:32N 37°36' E 023°53'9 9.2
2016-Jul-27 07:34N 37°39' E 023°43'9 9.4
2016-Jul-27 06:33N 37°48' E 023°37'9 8.7
2016-Jul-27 05:33N 37°50' E 023°27'17 0.7
2016-Jul-26 05:33N 37°55' E 023°06'0 0.0
2016-Jul-26 04:33N 37°55' E 023°06'0 0.0
2016-Jul-26 03:30N 37°55' E 023°06'0 0.0
2016-Jul-26 02:30N 37°55' E 023°06'0 0.0
2016-Jul-26 01:33N 37°55' E 023°06'0 0.0
2016-Jul-26 00:30N 37°55' E 023°06'1 0.1
2016-Jul-25 14:25N 37°54' E 023°07'7 7.8
2016-Jul-25 13:30N 37°52' E 023°15'9 9.3
2016-Jul-25 12:33N 37°50' E 023°26'9 9.1
2016-Jul-25 11:34N 37°51' E 023°38'9 8.9
2016-Jul-25 10:33N 37°43' E 023°44'  
2016-Jul-22 19:11N 37°29' E 023°59'5 8.2
2016-Jul-22 18:33N 37°32' E 023°55'9 8.9
2016-Jul-22 17:33N 37°38' E 023°46'8 8.5
2016-Jul-22 16:33N 37°44' E 023°39'9 8.6
2016-Jul-22 15:34N 37°53' E 023°36'8 7.2
2016-Jul-22 14:30N 37°60' E 023°33'2 1.2
2016-Jul-22 12:33N 38°02' E 023°31'1 0.7
2016-Jul-22 11:31N 38°02' E 023°30'0 0.0
2016-Jul-22 10:31N 38°02' E 023°30'0 0.0
2016-Jul-22 09:31N 38°02' E 023°30'0 0.0
2016-Jul-22 08:31N 38°02' E 023°30'0 0.0
2016-Jul-22 07:31N 38°02' E 023°30'0 0.0
2016-Jul-22 04:31N 38°02' E 023°30'0 0.0
2016-Jul-22 03:31N 38°02' E 023°30'0 0.0
2016-Jul-22 02:31N 38°02' E 023°30'0 0.0
2016-Jul-22 01:31N 38°02' E 023°30'0 0.0
2016-Jul-22 00:31N 38°02' E 023°30'0 0.0
2016-Jul-21 23:25N 38°02' E 023°30'0 0.0
2016-Jul-21 22:28N 38°02' E 023°30'0 0.0
2016-Jul-21 21:31N 38°02' E 023°30'0 0.0
2016-Jul-21 20:31N 38°02' E 023°30'0 0.0
2016-Jul-21 19:31N 38°02' E 023°30'0 0.0
2016-Jul-21 18:31N 38°02' E 023°30'0 0.0
2016-Jul-21 17:31N 38°02' E 023°30'0 0.0
2016-Jul-21 16:31N 38°02' E 023°30'0 0.0
2016-Jul-21 15:28N 38°02' E 023°30'0 0.0
2016-Jul-21 14:31N 38°02' E 023°30'0 0.0
2016-Jul-21 13:31N 38°02' E 023°30'0 0.0
2016-Jul-21 12:31N 38°02' E 023°30'0 0.0
2016-Jul-21 11:31N 38°02' E 023°30'0 0.2
2016-Jul-21 10:29N 38°02' E 023°30'1 1.3
2016-Jul-21 09:34N 38°01' E 023°31'0 0.2
2016-Jul-21 08:33N 38°01' E 023°32'7 6.7
2016-Jul-21 07:33N 37°55' E 023°36'2 1.7
2016-Jul-21 06:33N 37°54' E 023°36'2 2.4
2016-Jul-21 05:33N 37°52' E 023°38'9 9.0
2016-Jul-21 04:33N 37°44' E 023°43'  
Track history (hours):
 
Tides and Currents Weather Stations Pressure Air Temp Water Temp Dewpoint Dewpoint Depression Visibility Wind Speed Wind Dir Waves Ship Positions

Eko 4

Last reported at 2016-Jul-27 19:33 UTC. Time now 2016-Jul-30 03:32 UTC.
Position N 37°12' E 025°45'.

Length 88 m; draft 5 m.

Type: Ship (hazmat cat A). MMSI: 240912000.

Date/timePositionNaut miles runAvg speedWind from/ knotsBaromVisibWave heightAir tempDewpointWater temp
2016-Jul-27 19:33N 37°12' E 025°45'17 8.5
2016-Jul-27 17:33N 37°16' E 025°24'9 8.7
2016-Jul-27 16:32N 37°17' E 025°14'60 8.2
2016-Jul-27 09:12N 37°34' E 024°00'6 9.1
2016-Jul-27 08:32N 37°36' E 023°53'9 9.2
2016-Jul-27 07:34N 37°39' E 023°43'9 9.4
2016-Jul-27 06:33N 37°48' E 023°37'9 8.7
2016-Jul-27 05:33N 37°50' E 023°27'17 0.7
2016-Jul-26 05:33N 37°55' E 023°06'0 0.0
2016-Jul-26 04:33N 37°55' E 023°06'0 0.0
2016-Jul-26 03:30N 37°55' E 023°06'0 0.0
2016-Jul-26 02:30N 37°55' E 023°06'0 0.0
2016-Jul-26 01:33N 37°55' E 023°06'0 0.0
2016-Jul-26 00:30N 37°55' E 023°06'1 0.1
2016-Jul-25 14:25N 37°54' E 023°07'7 7.8
2016-Jul-25 13:30N 37°52' E 023°15'9 9.3
2016-Jul-25 12:33N 37°50' E 023°26'9 9.1
2016-Jul-25 11:34N 37°51' E 023°38'9 8.9
2016-Jul-25 10:33N 37°43' E 023°44'  
2016-Jul-22 19:11N 37°29' E 023°59'5 8.2
2016-Jul-22 18:33N 37°32' E 023°55'9 8.9
2016-Jul-22 17:33N 37°38' E 023°46'8 8.5
2016-Jul-22 16:33N 37°44' E 023°39'9 8.6
2016-Jul-22 15:34N 37°53' E 023°36'8 7.2
2016-Jul-22 14:30N 37°60' E 023°33'2 1.2
2016-Jul-22 12:33N 38°02' E 023°31'1 0.7
2016-Jul-22 11:31N 38°02' E 023°30'0 0.0
2016-Jul-22 10:31N 38°02' E 023°30'0 0.0
2016-Jul-22 09:31N 38°02' E 023°30'0 0.0
2016-Jul-22 08:31N 38°02' E 023°30'0 0.0
2016-Jul-22 07:31N 38°02' E 023°30'0 0.0
2016-Jul-22 04:31N 38°02' E 023°30'0 0.0
2016-Jul-22 03:31N 38°02' E 023°30'0 0.0
2016-Jul-22 02:31N 38°02' E 023°30'0 0.0
2016-Jul-22 01:31N 38°02' E 023°30'0 0.0
2016-Jul-22 00:31N 38°02' E 023°30'0 0.0
2016-Jul-21 23:25N 38°02' E 023°30'0 0.0
2016-Jul-21 22:28N 38°02' E 023°30'0 0.0
2016-Jul-21 21:31N 38°02' E 023°30'0 0.0
2016-Jul-21 20:31N 38°02' E 023°30'0 0.0
2016-Jul-21 19:31N 38°02' E 023°30'0 0.0
2016-Jul-21 18:31N 38°02' E 023°30'0 0.0
2016-Jul-21 17:31N 38°02' E 023°30'0 0.0
2016-Jul-21 16:31N 38°02' E 023°30'0 0.0
2016-Jul-21 15:28N 38°02' E 023°30'0 0.0
2016-Jul-21 14:31N 38°02' E 023°30'0 0.0
2016-Jul-21 13:31N 38°02' E 023°30'0 0.0
2016-Jul-21 12:31N 38°02' E 023°30'0 0.0
2016-Jul-21 11:31N 38°02' E 023°30'0 0.2
2016-Jul-21 10:29N 38°02' E 023°30'1 1.3
2016-Jul-21 09:34N 38°01' E 023°31'0 0.2
2016-Jul-21 08:33N 38°01' E 023°32'7 6.7
2016-Jul-21 07:33N 37°55' E 023°36'2 1.7
2016-Jul-21 06:33N 37°54' E 023°36'2 2.4
2016-Jul-21 05:33N 37°52' E 023°38'9 9.0
2016-Jul-21 04:33N 37°44' E 023°43'  

Dump ship's entire track history